KHON/HON METAR and TAF weather

Enter ICAO airport designator
Station Type Date Time Source
KHON METAR 2024/07/24 12:55 UTC NOAA

KHON 241255Z AUTO 11011KT 3SM BR OVC004 20/19 A3010 RMK AO2 SLP185 T02000194


Station Type Date Time Source
KHON Decoded METAR 2024/07/24 12:55 UTC NOAA

HURON REGIONAL AIRPORT, SD, United States (KHON) 44-23N 098-14W 390M
Jul 24, 2024 - 08:55 AM EDT / 2024.07.24 1255 UTC
Wind: from the ESE (110 degrees) at 13 MPH (11 KT):0
Visibility: 3 mile(s):0
Sky conditions: overcast
Weather: mist
Temperature: 68.0 F (20.0 C)
Dew Point: 66.9 F (19.4 C)
Relative Humidity: 96%
Pressure (altimeter): 30.1 in. Hg (1019 hPa)
ob: KHON 241255Z AUTO 11011KT 3SM BR OVC004 20/19 A3010 RMK AO2 SLP185 T02000194
cycle: 13

Station Type Date Time Source
KHON TAF 2024/07/24 12:48 UTC NOAA